createdAt,value
2022-11-14T00:01:18.245Z,25.38
2022-11-14T00:04:51.480Z,27.80
2022-11-14T00:08:28.414Z,24.28
2022-11-14T00:17:59.551Z,27.28
2022-11-14T00:40:00.823Z,27.58
2022-11-14T00:43:31.358Z,27.58
2022-11-14T00:53:01.712Z,26.30
2022-11-14T00:56:28.615Z,24.18
2022-11-14T00:59:59.601Z,24.73
2022-11-14T01:03:29.762Z,22.98
2022-11-14T01:06:59.903Z,25.78
2022-11-14T01:10:30.795Z,24.68
2022-11-14T01:14:01.049Z,23.08
2022-11-14T01:17:32.222Z,22.30
2022-11-14T01:21:02.532Z,22.03
2022-11-14T01:24:33.823Z,22.83
2022-11-14T01:28:04.525Z,22.60
2022-11-14T01:31:35.177Z,23.28
2022-11-14T01:35:07.970Z,23.80
2022-11-14T01:38:38.461Z,22.80
2022-11-14T01:42:09.146Z,20.60
2022-11-14T01:46:02.404Z,21.88
2022-11-14T01:55:36.289Z,19.93
2022-11-14T02:05:11.071Z,21.58
2022-11-14T02:08:42.711Z,20.58
2022-11-14T02:12:17.899Z,20.60
2022-11-14T02:18:48.320Z,19.68
2022-11-14T02:22:20.353Z,20.83
2022-11-14T02:25:50.539Z,19.63
2022-11-14T02:29:21.111Z,18.80
2022-11-14T02:33:09.893Z,19.58
2022-11-14T02:36:25.184Z,18.33
2022-11-14T02:39:55.554Z,18.90
2022-11-14T02:43:25.706Z,20.43
2022-11-14T02:46:56.096Z,18.88
2022-11-14T02:50:30.981Z,19.25
2022-11-14T02:54:02.445Z,18.20
2022-11-14T02:57:33.043Z,18.18
2022-11-14T03:01:20.361Z,17.85
2022-11-14T03:04:40.050Z,17.73
2022-11-14T03:08:10.881Z,17.35
2022-11-14T03:11:41.783Z,16.68
2022-11-14T03:15:15.035Z,16.20
2022-11-14T03:18:46.924Z,16.35
2022-11-14T03:25:23.041Z,15.68
2022-11-14T03:28:56.499Z,14.03
2022-11-14T03:32:27.551Z,15.25
2022-11-14T03:35:59.362Z,15.08
2022-11-14T03:39:30.094Z,15.15
2022-11-14T03:43:00.153Z,14.53
2022-11-14T03:46:23.309Z,13.98
2022-11-14T03:49:54.048Z,14.98
2022-11-14T03:53:24.459Z,14.63
2022-11-14T03:56:54.779Z,13.65
2022-11-14T04:00:27.685Z,13.68
2022-11-14T04:03:58.470Z,14.75
2022-11-14T04:07:28.854Z,14.85
2022-11-14T04:17:53.674Z,15.65
2022-11-14T04:21:24.511Z,15.38
2022-11-14T04:24:54.554Z,16.95
2022-11-14T04:28:24.963Z,15.35
2022-11-14T05:03:22.670Z,18.88
2022-11-14T05:06:52.860Z,17.50
2022-11-14T05:10:24.035Z,17.98
2022-11-14T05:13:55.346Z,18.50
2022-11-14T05:17:22.948Z,16.63
2022-11-14T05:20:53.271Z,16.03
2022-11-14T05:24:23.701Z,13.50
2022-11-14T05:27:54.275Z,15.55
2022-11-14T05:31:24.509Z,14.55
2022-11-14T05:34:55.261Z,14.85
2022-11-14T05:44:25.771Z,13.65
2022-11-14T07:08:06.532Z,24.45
2022-11-14T07:20:37.265Z,16.10
2022-11-14T07:24:08.008Z,16.90
2022-11-14T07:27:38.562Z,15.48
2022-11-14T07:31:12.435Z,38.40
2022-11-14T07:34:42.767Z,24.63
2022-11-14T07:38:13.323Z,15.70
2022-11-14T07:41:43.664Z,14.53
2022-11-14T07:45:16.519Z,15.20
2022-11-14T07:48:48.105Z,14.00
2022-11-14T07:52:18.545Z,14.80
2022-11-14T07:55:49.555Z,14.53
2022-11-14T07:59:20.165Z,16.33
2022-11-14T08:02:52.403Z,14.48
2022-11-14T08:06:24.122Z,15.10
2022-11-14T08:09:54.813Z,14.48
2022-11-14T08:13:32.115Z,14.83
2022-11-14T08:16:57.766Z,14.30
2022-11-14T08:20:28.625Z,15.20
2022-11-14T08:23:58.616Z,39.25
2022-11-14T08:27:29.333Z,21.30
2022-11-14T08:31:05.683Z,20.88
2022-11-14T08:34:37.415Z,17.53
2022-11-14T08:38:08.367Z,15.73
2022-11-14T08:41:38.865Z,15.65
2022-11-14T08:45:10.619Z,14.98
2022-11-14T08:48:41.249Z,14.90
2022-11-14T08:52:16.510Z,15.38
2022-11-14T08:55:49.158Z,15.10
2022-11-14T08:59:19.592Z,14.83
2022-11-14T09:02:49.931Z,15.85
2022-11-14T09:06:20.497Z,21.48
2022-11-14T09:09:51.076Z,22.58
2022-11-14T09:13:22.353Z,21.33
2022-11-14T09:16:54.595Z,19.50
2022-11-14T09:20:31.065Z,21.45
2022-11-14T09:24:01.676Z,20.38
2022-11-14T09:27:32.860Z,21.18
2022-11-14T09:31:10.285Z,22.33
2022-11-14T09:34:42.606Z,20.73
2022-11-14T09:38:15.313Z,21.70
2022-11-14T09:41:58.798Z,20.83
2022-11-14T09:45:29.651Z,19.55
2022-11-14T09:49:02.465Z,27.88
2022-11-14T09:52:43.272Z,32.50
2022-11-14T09:56:19.101Z,26.70
2022-11-14T09:59:49.643Z,19.98
2022-11-14T10:03:26.098Z,19.20
2022-11-14T10:07:04.290Z,19.13
2022-11-14T10:10:50.117Z,18.58
2022-11-14T10:15:08.955Z,20.88
2022-11-14T10:18:58.751Z,19.98
2022-11-14T10:22:45.497Z,19.68
2022-11-14T10:26:24.603Z,19.43
2022-11-14T10:30:16.387Z,20.48
2022-11-14T10:47:50.871Z,19.33
2022-11-14T10:51:28.916Z,20.45
2022-11-14T10:55:06.482Z,19.48
2022-11-14T10:58:47.755Z,17.90
2022-11-14T11:02:09.175Z,19.45
2022-11-14T11:05:45.807Z,20.60
2022-11-14T11:09:51.041Z,21.07
2022-11-14T11:13:36.788Z,21.63
2022-11-14T11:17:33.310Z,20.93
2022-11-14T11:21:14.412Z,26.45
2022-11-14T11:24:45.454Z,26.23
2022-11-14T11:28:20.871Z,26.85
2022-11-14T11:32:00.260Z,21.25
2022-11-14T11:35:30.784Z,20.35
2022-11-14T11:39:02.920Z,22.35
2022-11-14T11:46:21.359Z,20.28
2022-11-14T11:49:54.956Z,19.60
2022-11-14T11:53:30.902Z,18.73
2022-11-14T11:57:06.099Z,19.35
2022-11-14T12:00:37.374Z,22.03
2022-11-14T12:04:08.300Z,21.65
2022-11-14T12:07:47.794Z,20.90
2022-11-14T12:11:23.100Z,20.78
2022-11-14T12:15:15.150Z,21.58
2022-11-14T12:19:25.061Z,21.75
2022-11-14T12:27:11.104Z,39.78
2022-11-14T12:30:45.850Z,27.35
2022-11-14T12:34:26.737Z,21.70
2022-11-14T12:37:59.658Z,21.85
2022-11-14T12:41:35.149Z,21.45
2022-11-14T12:45:05.431Z,23.05
2022-11-14T12:48:43.012Z,23.20
2022-11-14T12:52:38.068Z,24.08
2022-11-14T12:56:21.312Z,23.40
2022-11-14T13:00:07.414Z,24.58
2022-11-14T13:03:56.674Z,23.88
2022-11-14T13:07:42.948Z,24.48
2022-11-14T13:12:13.580Z,26.90
2022-11-14T13:16:10.218Z,26.28
2022-11-14T13:19:57.415Z,26.05
2022-11-14T13:24:04.780Z,24.38
2022-11-14T13:28:06.020Z,23.60
2022-11-14T13:31:27.485Z,24.28
2022-11-14T13:35:03.375Z,24.87
2022-11-14T13:39:26.468Z,23.13
2022-11-14T13:43:03.644Z,19.63
2022-11-14T13:46:48.065Z,23.65
2022-11-14T13:50:22.907Z,23.18
2022-11-14T13:53:53.596Z,22.55
2022-11-14T13:57:34.643Z,22.30
2022-11-14T14:01:16.207Z,23.15
2022-11-14T14:04:58.442Z,21.77
2022-11-14T14:08:45.119Z,22.05
2022-11-14T14:12:38.985Z,28.55
2022-11-14T14:16:16.575Z,25.20
2022-11-14T14:19:59.335Z,25.10
2022-11-14T14:23:41.509Z,24.10
2022-11-14T14:27:18.478Z,24.33
2022-11-14T14:31:04.098Z,24.10
2022-11-14T14:34:37.381Z,24.20
2022-11-14T14:38:09.536Z,25.70
2022-11-14T14:41:40.886Z,31.23
2022-11-14T14:45:18.514Z,27.63
2022-11-14T14:52:36.031Z,24.95
2022-11-14T14:56:11.437Z,25.58
2022-11-14T14:59:42.448Z,28.73
2022-11-14T15:03:16.263Z,29.50
2022-11-14T15:06:51.445Z,31.05
2022-11-14T15:10:33.854Z,29.33
2022-11-14T15:14:06.648Z,29.00
2022-11-14T15:17:37.308Z,30.73
2022-11-14T15:21:32.394Z,28.70
2022-11-14T15:25:25.568Z,29.80
2022-11-14T15:28:56.002Z,36.58
2022-11-14T15:32:29.693Z,42.20
2022-11-14T15:36:13.871Z,39.60
2022-11-14T15:39:45.411Z,29.80
2022-11-14T15:43:50.603Z,30.55
2022-11-14T15:47:28.132Z,32.08
2022-11-14T15:50:59.442Z,29.93
2022-11-14T15:54:37.682Z,32.43
2022-11-14T15:58:27.040Z,30.28
2022-11-14T16:01:41.579Z,30.95
2022-11-14T16:05:18.157Z,33.60
2022-11-14T16:08:48.780Z,32.63
2022-11-14T16:12:19.468Z,31.55
2022-11-14T16:15:50.116Z,32.78
2022-11-14T16:19:22.866Z,31.85
2022-11-14T16:22:56.662Z,31.05
2022-11-14T16:26:27.369Z,30.55
2022-11-14T16:29:57.659Z,33.03
2022-11-14T16:33:28.531Z,33.03
2022-11-14T16:37:07.186Z,32.78
2022-11-14T16:40:37.591Z,34.13
2022-11-14T16:44:08.189Z,34.08
2022-11-14T16:47:38.814Z,33.68
2022-11-14T16:51:40.927Z,32.68
2022-11-14T16:54:43.041Z,32.18
2022-11-14T16:58:14.676Z,34.35
2022-11-14T17:01:46.119Z,34.35
2022-11-14T17:05:17.378Z,32.63
2022-11-14T17:08:48.109Z,32.55
2022-11-14T17:12:18.693Z,34.83
2022-11-14T17:15:49.501Z,34.35
2022-11-14T17:19:19.742Z,35.50
2022-11-14T17:22:49.928Z,35.98
2022-11-14T17:26:21.406Z,37.98
2022-11-14T17:29:51.847Z,36.93
2022-11-14T17:33:21.959Z,36.13
2022-11-14T17:36:52.550Z,37.85
2022-11-14T17:40:23.673Z,35.68
2022-11-14T17:44:00.211Z,35.40
2022-11-14T17:47:31.271Z,36.00
2022-11-14T17:51:03.667Z,36.30
2022-11-14T17:54:35.746Z,37.18
2022-11-14T17:58:06.364Z,37.88
2022-11-14T18:01:36.699Z,39.93
2022-11-14T18:05:07.240Z,39.53
2022-11-14T18:08:37.365Z,39.75
2022-11-14T18:12:07.495Z,37.95
2022-11-14T18:15:38.603Z,38.00
2022-11-14T18:19:08.971Z,43.43
2022-11-14T18:22:39.105Z,40.45
2022-11-14T18:26:19.514Z,39.93
2022-11-14T18:29:50.302Z,38.90
2022-11-14T18:33:20.842Z,35.18
2022-11-14T18:36:51.700Z,41.18
2022-11-14T18:40:23.079Z,41.18
2022-11-14T18:43:55.576Z,41.38
2022-11-14T18:47:26.273Z,44.18
2022-11-14T18:50:56.154Z,43.25
2022-11-14T18:54:26.721Z,43.30
2022-11-14T18:57:57.193Z,40.25
2022-11-14T19:01:32.107Z,41.65
2022-11-14T19:05:02.893Z,42.00
2022-11-14T19:08:32.969Z,40.00
2022-11-14T19:12:17.736Z,36.43
2022-11-14T19:15:48.593Z,38.33
2022-11-14T19:19:19.353Z,37.83
2022-11-14T19:22:49.425Z,38.30
2022-11-14T19:26:20.082Z,37.60
2022-11-14T19:29:50.874Z,39.25
2022-11-14T19:33:21.084Z,36.50
2022-11-14T19:37:00.335Z,35.43
2022-11-14T19:40:26.341Z,37.35
2022-11-14T19:43:56.858Z,36.70
2022-11-14T19:47:27.123Z,36.20
2022-11-14T19:51:07.350Z,35.10
2022-11-14T19:54:38.016Z,38.68
2022-11-14T19:58:08.435Z,35.15
2022-11-14T20:01:42.163Z,35.85
2022-11-14T20:05:15.316Z,35.38
2022-11-14T20:08:45.861Z,35.78
2022-11-14T20:12:16.369Z,35.23
2022-11-14T20:15:46.936Z,34.28
2022-11-14T20:19:18.208Z,34.03
2022-11-14T20:22:48.653Z,33.00
2022-11-14T20:26:20.718Z,31.83
2022-11-14T20:29:51.079Z,34.90
2022-11-14T20:33:21.694Z,33.50
2022-11-14T20:40:24.971Z,29.45
2022-11-14T20:43:57.609Z,29.85
2022-11-14T20:47:28.539Z,28.78
2022-11-14T20:51:01.383Z,31.30
2022-11-14T20:54:31.848Z,31.33
2022-11-14T20:58:02.500Z,31.25
2022-11-14T21:01:33.345Z,30.80
2022-11-14T21:05:03.889Z,31.68
2022-11-14T21:08:34.863Z,31.03
2022-11-14T21:12:05.350Z,28.05
2022-11-14T21:15:36.632Z,29.30
2022-11-14T21:19:08.319Z,26.48
2022-11-14T21:22:38.394Z,29.30
2022-11-14T21:26:17.291Z,25.63
2022-11-14T21:29:47.679Z,26.15
2022-11-14T21:33:17.781Z,27.65
2022-11-14T21:36:48.573Z,28.73
2022-11-14T21:40:20.607Z,28.43
2022-11-14T21:43:53.366Z,28.05
2022-11-14T21:47:23.707Z,26.33
2022-11-14T21:50:54.411Z,24.53
2022-11-14T21:54:24.701Z,25.63
2022-11-14T21:57:59.166Z,27.43
2022-11-14T22:01:40.707Z,27.48
2022-11-14T22:05:12.228Z,26.75
2022-11-14T22:08:42.572Z,26.20
2022-11-14T22:12:13.319Z,25.95
2022-11-14T22:15:44.252Z,26.03
2022-11-14T22:19:14.604Z,26.88
2022-11-14T22:22:45.024Z,26.70
2022-11-14T22:26:16.841Z,27.00
2022-11-14T22:29:46.965Z,25.30
2022-11-14T22:33:17.495Z,25.53
2022-11-14T22:36:48.188Z,26.40
2022-11-14T22:40:20.700Z,26.53
2022-11-14T22:43:51.526Z,27.03
2022-11-14T22:47:21.740Z,25.95
2022-11-14T22:50:52.269Z,25.83
2022-11-14T22:54:23.380Z,25.33
2022-11-14T22:57:54.051Z,23.85
2022-11-14T23:01:28.146Z,24.28
2022-11-14T23:04:58.436Z,24.85
2022-11-14T23:08:28.880Z,25.48
2022-11-14T23:11:59.503Z,22.35
2022-11-14T23:15:29.722Z,23.63
2022-11-14T23:19:02.841Z,24.70
2022-11-14T23:22:33.318Z,23.35
2022-11-14T23:26:08.049Z,23.93
2022-11-14T23:29:38.322Z,23.80
2022-11-14T23:33:09.160Z,23.02
2022-11-14T23:36:40.182Z,25.35
2022-11-14T23:40:13.609Z,26.38
2022-11-14T23:43:44.138Z,24.78
2022-11-14T23:47:14.501Z,26.13
2022-11-14T23:50:44.789Z,24.13
2022-11-14T23:54:15.424Z,23.68
2022-11-14T23:57:45.891Z,23.65
